Time;durP1;ratioP1;P1;durP2;ratioP2;P2;SDS_P1;SDS_P2;PMS_P1;PMS_P2;Temp;Humidity;BMP_temperature;BMP_pressure;BME280_temperature;BME280_humidity;BME280_pressure;Samples;Min_cycle;Max_cycle;Signal;HPM_P1;HPM_P2
2022/08/25 00:01:44;;;;;;;;;;;23.10;81.20;;;;;;5116806;28;19976;-52
2022/08/25 00:04:12;;;;;;;;;;;23.10;81.20;;;;;;5098814;28;19923;-54
2022/08/25 00:06:37;;;;;;;;;;;23.10;81.10;;;;;;5117008;28;19908;-50
2022/08/25 00:09:04;;;;;;;;;;;23.10;81.10;;;;;;5116591;28;20376;-53
2022/08/25 00:11:31;;;;;;;;;;;23.10;81.10;;;;;;5116356;28;20270;-55
2022/08/25 00:13:59;;;;;;;;;;;23.10;81.10;;;;;;5098601;28;19953;-54
2022/08/25 00:16:25;;;;;;;;;;;23.10;81.10;;;;;;5116357;28;19927;-53
2022/08/25 00:18:52;;;;;;;;;;;23.10;81.20;;;;;;5116766;28;19915;-54
2022/08/25 00:21:18;;;;;;;;;;;23.00;81.10;;;;;;5116645;28;19908;-56
2022/08/25 00:23:44;;;;;;;;;;;23.00;81.10;;;;;;5116476;28;20366;-54
2022/08/25 00:26:09;;;;;;;;;;;23.10;81.20;;;;;;5116224;28;19912;-55
2022/08/25 00:28:35;;;;;;;;;;;23.00;81.10;;;;;;5116487;28;19908;-54
2022/08/25 00:31:01;;;;;;;;;;;23.10;81.20;;;;;;5116511;28;19908;-55
2022/08/25 00:33:29;;;;;;;;;;;23.10;81.20;;;;;;5098115;28;19915;-54
2022/08/25 00:35:55;;;;;;;;;;;23.10;81.20;;;;;;5098084;28;20349;-54
2022/08/25 00:38:21;;;;;;;;;;;23.00;81.20;;;;;;5116182;28;19907;-54
2022/08/25 00:41:04;;;;;;;;;;;23.00;81.20;;;;;;5116187;28;19915;-55
2022/08/25 00:43:48;;;;;;;;;;;23.10;81.20;;;;;;5115975;28;20284;-53
2022/08/25 00:46:17;;;;;;;;;;;23.00;81.10;;;;;;5116049;28;19963;-53
2022/08/25 00:48:44;;;;;;;;;;;23.00;81.20;;;;;;5115886;28;19915;-51
2022/08/25 00:51:12;;;;;;;;;;;23.00;81.20;;;;;;5097738;28;19912;-54
2022/08/25 00:53:38;;;;;;;;;;;23.00;81.20;;;;;;5116051;28;19908;-55
2022/08/25 00:56:03;;;;;;;;;;;23.00;81.20;;;;;;5116373;28;19908;-53
2022/08/25 00:58:30;;;;;;;;;;;23.00;81.20;;;;;;5097809;28;19918;-52
2022/08/25 01:00:56;;;;;;;;;;;23.00;81.10;;;;;;5116032;28;20236;-55
2022/08/25 01:03:23;;;;;;;;;;;23.00;81.20;;;;;;5115411;28;19912;-55
2022/08/25 01:05:49;;;;;;;;;;;23.00;81.20;;;;;;5115533;28;19912;-56
2022/08/25 01:08:18;;;;;;;;;;;23.00;81.20;;;;;;5116039;28;20003;-50
2022/08/25 01:10:44;;;;;;;;;;;23.00;81.20;;;;;;5115380;28;19908;-54
2022/08/25 01:13:13;;;;;;;;;;;23.00;81.10;;;;;;5115765;28;20338;-55
2022/08/25 01:15:38;;;;;;;;;;;23.00;81.20;;;;;;5093752;28;19927;-54
2022/08/25 01:18:04;;;;;;;;;;;23.00;81.20;;;;;;5095150;28;19908;-54
2022/08/25 01:20:30;;;;;;;;;;;23.00;81.20;;;;;;5095164;28;19913;-51
2022/08/25 01:22:56;;;;;;;;;;;23.00;81.20;;;;;;5093449;28;19912;-54
2022/08/25 01:25:36;;;;;;;;;;;23.00;81.20;;;;;;5095033;28;19912;-55
2022/08/25 01:28:02;;;;;;;;;;;23.00;81.20;;;;;;5094997;28;20351;-55
2022/08/25 01:30:28;;;;;;;;;;;23.00;81.20;;;;;;5094898;28;19916;-55
2022/08/25 01:32:53;;;;;;;;;;;23.00;81.20;;;;;;5095310;28;19908;-56
2022/08/25 01:35:19;;;;;;;;;;;23.00;81.20;;;;;;5094843;28;19919;-54
2022/08/25 01:37:45;;;;;;;;;;;23.00;81.20;;;;;;5094878;28;19947;-52
2022/08/25 01:40:11;;;;;;;;;;;23.00;81.20;;;;;;5094721;28;19915;-56
2022/08/25 01:42:45;;;;;;;;;;;23.00;81.20;;;;;;5094661;28;20283;-52
2022/08/25 01:45:11;;;;;;;;;;;23.00;81.20;;;;;;5094716;28;19912;-52
2022/08/25 01:47:37;;;;;;;;;;;23.00;81.30;;;;;;5093416;28;20305;-53
2022/08/25 01:50:03;;;;;;;;;;;23.00;81.20;;;;;;5094539;28;19908;-53
2022/08/25 01:52:32;;;;;;;;;;;23.00;81.20;;;;;;5094357;28;19915;-53
2022/08/25 01:54:57;;;;;;;;;;;23.00;81.30;;;;;;5094342;28;19909;-53
2022/08/25 01:57:23;;;;;;;;;;;23.00;81.20;;;;;;5093181;28;19961;-55
2022/08/25 01:59:48;;;;;;;;;;;23.00;81.20;;;;;;5094050;28;19915;-56
2022/08/25 02:02:14;;;;;;;;;;;23.00;81.20;;;;;;5094274;28;19912;-53
2022/08/25 02:04:39;;;;;;;;;;;23.00;81.20;;;;;;5094005;28;19916;-53
2022/08/25 02:07:05;;;;;;;;;;;23.00;81.30;;;;;;5093981;28;19976;-55
2022/08/25 02:09:31;;;;;;;;;;;23.00;81.30;;;;;;5094275;28;20312;-56
2022/08/25 02:11:58;;;;;;;;;;;23.00;81.30;;;;;;5094224;28;20003;-56
2022/08/25 02:14:23;;;;;;;;;;;23.00;81.30;;;;;;5093061;28;19908;-55
2022/08/25 02:16:50;;;;;;;;;;;23.00;81.30;;;;;;5092608;28;20192;-55
2022/08/25 02:19:16;;;;;;;;;;;23.00;81.40;;;;;;5094134;28;19915;-53
2022/08/25 02:21:41;;;;;;;;;;;23.00;81.40;;;;;;5092793;28;19908;-55
2022/08/25 02:24:07;;;;;;;;;;;23.00;81.40;;;;;;5094080;28;19915;-55
2022/08/25 02:26:35;;;;;;;;;;;23.00;81.40;;;;;;5093823;28;19915;-54
2022/08/25 02:29:00;;;;;;;;;;;23.00;81.30;;;;;;5094098;28;19962;-55
2022/08/25 02:31:26;;;;;;;;;;;23.00;81.30;;;;;;5094367;28;19908;-54
2022/08/25 02:33:52;;;;;;;;;;;23.00;81.40;;;;;;5093986;28;20335;-55
2022/08/25 02:36:18;;;;;;;;;;;23.00;81.30;;;;;;5097107;28;19961;-55
2022/08/25 02:38:43;;;;;;;;;;;23.00;81.40;;;;;;5098018;28;20275;-55
2022/08/25 02:41:13;;;;;;;;;;;23.00;81.40;;;;;;5098085;28;19912;-55
2022/08/25 02:43:40;;;;;;;;;;;23.00;81.40;;;;;;5097642;28;19912;-50
2022/08/25 02:46:06;;;;;;;;;;;23.00;81.30;;;;;;5098026;28;19965;-55
2022/08/25 02:48:32;;;;;;;;;;;23.00;81.40;;;;;;5096675;28;20002;-56
2022/08/25 02:50:59;;;;;;;;;;;23.00;81.30;;;;;;5097954;28;19908;-55
2022/08/25 02:53:25;;;;;;;;;;;23.00;81.30;;;;;;5097874;28;19912;-56
2022/08/25 02:55:50;;;;;;;;;;;23.00;81.40;;;;;;5097894;28;19908;-54
2022/08/25 02:58:16;;;;;;;;;;;23.00;81.40;;;;;;5098101;28;19977;-55
2022/08/25 03:00:41;;;;;;;;;;;23.00;81.40;;;;;;5097831;28;19924;-53
2022/08/25 03:03:07;;;;;;;;;;;23.00;81.40;;;;;;5097689;28;20400;-54
2022/08/25 03:05:32;;;;;;;;;;;23.00;81.40;;;;;;5097383;28;20286;-53
2022/08/25 03:07:58;;;;;;;;;;;23.00;81.40;;;;;;5097703;28;19908;-53
2022/08/25 03:10:24;;;;;;;;;;;23.00;81.40;;;;;;5097744;28;20371;-53
2022/08/25 03:12:49;;;;;;;;;;;22.90;81.30;;;;;;5097571;28;20370;-55
2022/08/25 03:15:16;;;;;;;;;;;23.00;81.50;;;;;;5100427;28;20232;-54
2022/08/25 03:17:42;;;;;;;;;;;23.00;81.60;;;;;;5118132;28;20343;-53
2022/08/25 03:20:07;;;;;;;;;;;22.90;81.50;;;;;;5117833;28;19907;-51
2022/08/25 03:22:33;;;;;;;;;;;23.00;81.50;;;;;;5117358;28;20223;-56
2022/08/25 03:26:52;;;;;;;;;;;23.00;81.40;;;;;;5117663;28;19915;-53
2022/08/25 03:27:44;;;;;;;;;;;22.90;81.40;;;;;;5117192;28;19915;-53
2022/08/25 03:30:09;;;;;;;;;;;23.00;81.50;;;;;;5117590;28;20278;-54
2022/08/25 03:32:35;;;;;;;;;;;22.90;81.40;;;;;;5117030;28;19987;-55
2022/08/25 03:35:01;;;;;;;;;;;23.00;81.40;;;;;;5117033;28;20006;-56
2022/08/25 03:37:26;;;;;;;;;;;23.00;81.40;;;;;;5117297;28;19990;-54
2022/08/25 03:39:52;;;;;;;;;;;22.90;81.30;;;;;;5117126;28;20427;-54
2022/08/25 03:42:17;;;;;;;;;;;22.90;81.40;;;;;;5117275;28;19912;-55
2022/08/25 03:44:43;;;;;;;;;;;22.90;81.40;;;;;;5117032;28;20293;-57
2022/08/25 03:47:09;;;;;;;;;;;23.00;81.40;;;;;;5097721;28;19908;-54
2022/08/25 03:49:34;;;;;;;;;;;23.00;81.50;;;;;;5117411;28;20373;-53
2022/08/25 03:52:00;;;;;;;;;;;22.90;81.40;;;;;;5116614;28;19937;-55
2022/08/25 03:54:26;;;;;;;;;;;22.90;81.50;;;;;;5116948;28;19981;-54
2022/08/25 03:56:51;;;;;;;;;;;22.90;81.60;;;;;;5116720;28;20357;-54
2022/08/25 03:59:17;;;;;;;;;;;22.90;81.70;;;;;;5116703;28;19915;-54
2022/08/25 04:01:43;;;;;;;;;;;22.90;81.70;;;;;;5116831;28;19914;-51
2022/08/25 04:04:09;;;;;;;;;;;22.90;81.70;;;;;;5116492;28;19916;-52
2022/08/25 04:06:36;;;;;;;;;;;22.90;81.60;;;;;;5116599;28;19908;-55
2022/08/25 04:09:02;;;;;;;;;;;22.90;81.50;;;;;;5098446;28;19986;-55
2022/08/25 04:11:27;;;;;;;;;;;22.90;81.50;;;;;;5116750;28;19996;-55
2022/08/25 04:13:56;;;;;;;;;;;22.90;81.40;;;;;;5116222;28;19912;-54
2022/08/25 04:16:23;;;;;;;;;;;22.90;81.50;;;;;;5116441;28;19963;-52
2022/08/25 04:18:50;;;;;;;;;;;22.90;81.40;;;;;;5116213;28;19951;-52
2022/08/25 04:21:17;;;;;;;;;;;22.90;81.40;;;;;;5098286;28;20006;-53
2022/08/25 04:23:43;;;;;;;;;;;22.90;81.50;;;;;;5116045;28;20374;-53
2022/08/25 04:26:10;;;;;;;;;;;22.90;81.40;;;;;;5116463;28;19939;-54
2022/08/25 04:28:35;;;;;;;;;;;22.90;81.50;;;;;;5116342;28;19908;-55
2022/08/25 04:31:01;;;;;;;;;;;22.90;81.50;;;;;;5116129;28;19957;-53
2022/08/25 04:33:26;;;;;;;;;;;22.90;81.50;;;;;;5115998;28;20331;-56
2022/08/25 04:35:51;;;;;;;;;;;22.90;81.50;;;;;;5097626;28;19930;-56
2022/08/25 04:38:17;;;;;;;;;;;22.90;81.50;;;;;;5115811;28;19922;-55
2022/08/25 04:40:43;;;;;;;;;;;22.90;81.50;;;;;;5116144;28;19908;-54
2022/08/25 04:43:08;;;;;;;;;;;23.00;81.50;;;;;;5115703;28;19913;-54
2022/08/25 04:45:38;;;;;;;;;;;23.00;81.50;;;;;;5097753;28;19939;-55
2022/08/25 04:48:03;;;;;;;;;;;22.90;81.50;;;;;;5115915;28;19908;-51
2022/08/25 04:50:29;;;;;;;;;;;23.00;81.50;;;;;;5115603;28;19934;-54
2022/08/25 04:52:54;;;;;;;;;;;22.90;81.50;;;;;;5115531;28;19907;-52
2022/08/25 04:55:20;;;;;;;;;;;22.90;81.50;;;;;;5097393;28;19914;-52
2022/08/25 04:57:45;;;;;;;;;;;22.90;81.40;;;;;;5115422;28;20003;-52
2022/08/25 05:00:11;;;;;;;;;;;22.90;81.40;;;;;;5115762;28;19908;-55
2022/08/25 05:02:37;;;;;;;;;;;22.90;81.40;;;;;;5115402;28;20007;-50
2022/08/25 05:05:03;;;;;;;;;;;22.90;81.40;;;;;;5115609;28;19921;-54
2022/08/25 05:07:28;;;;;;;;;;;22.90;81.50;;;;;;5115570;28;19908;-53
2022/08/25 05:09:54;;;;;;;;;;;22.90;81.50;;;;;;5115475;28;20358;-55
2022/08/25 05:12:19;;;;;;;;;;;23.00;81.50;;;;;;5115339;28;19919;-53
2022/08/25 05:14:45;;;;;;;;;;;22.90;81.40;;;;;;5097285;28;19930;-56
2022/08/25 05:17:10;;;;;;;;;;;23.00;81.40;;;;;;5114862;28;19926;-52
2022/08/25 05:19:36;;;;;;;;;;;22.90;81.40;;;;;;5115287;28;19908;-56
2022/08/25 05:22:01;;;;;;;;;;;23.00;81.40;;;;;;5114920;28;19915;-55
2022/08/25 05:24:27;;;;;;;;;;;23.00;81.40;;;;;;5115322;28;19934;-55
2022/08/25 05:26:52;;;;;;;;;;;23.00;81.40;;;;;;5114952;28;19908;-52
2022/08/25 05:29:18;;;;;;;;;;;23.00;81.40;;;;;;5114857;28;19930;-56
2022/08/25 05:31:44;;;;;;;;;;;23.00;81.30;;;;;;5115285;28;19960;-55
2022/08/25 05:34:10;;;;;;;;;;;23.00;81.40;;;;;;5114946;28;20396;-54
2022/08/25 05:36:37;;;;;;;;;;;23.00;81.40;;;;;;5114646;28;20434;-52
2022/08/25 05:39:03;;;;;;;;;;;23.00;81.40;;;;;;5114611;28;19915;-53
2022/08/25 05:41:29;;;;;;;;;;;23.00;81.30;;;;;;5096656;28;19911;-55
2022/08/25 05:43:54;;;;;;;;;;;23.00;81.30;;;;;;5096031;28;19927;-55
2022/08/25 05:46:21;;;;;;;;;;;23.00;81.30;;;;;;5114341;28;19907;-52
2022/08/25 05:48:47;;;;;;;;;;;23.00;81.40;;;;;;5114526;28;20345;-55
2022/08/25 05:51:13;;;;;;;;;;;23.00;81.40;;;;;;5114662;28;19909;-53
2022/08/25 05:53:40;;;;;;;;;;;23.00;81.30;;;;;;5096473;28;20273;-55
2022/08/25 05:56:06;;;;;;;;;;;23.00;81.40;;;;;;5114644;28;19954;-53
2022/08/25 05:58:32;;;;;;;;;;;23.00;81.40;;;;;;5114168;28;19957;-54
2022/08/25 06:02:39;;;;;;;;;;;23.00;81.40;;;;;;5114638;28;19947;-56
2022/08/25 06:03:44;;;;;;;;;;;23.00;81.40;;;;;;5113501;28;19924;-55
2022/08/25 06:06:09;;;;;;;;;;;23.00;81.40;;;;;;5114324;28;20364;-52
2022/08/25 06:08:35;;;;;;;;;;;23.00;81.30;;;;;;5114554;28;19914;-53
2022/08/25 06:11:00;;;;;;;;;;;23.00;81.40;;;;;;5113557;28;20340;-53
2022/08/25 06:13:26;;;;;;;;;;;23.00;81.40;;;;;;5114394;28;19908;-57
2022/08/25 06:15:56;;;;;;;;;;;23.00;81.30;;;;;;5114161;28;20284;-55
2022/08/25 06:18:22;;;;;;;;;;;23.00;81.30;;;;;;5113877;28;19915;-56
2022/08/25 06:20:47;;;;;;;;;;;23.00;81.40;;;;;;5113947;28;19908;-55
2022/08/25 06:23:13;;;;;;;;;;;23.00;81.40;;;;;;5096006;28;19912;-50
2022/08/25 06:25:39;;;;;;;;;;;23.00;81.30;;;;;;5113640;28;19911;-56
2022/08/25 06:28:04;;;;;;;;;;;23.00;81.40;;;;;;5114292;28;20391;-57
2022/08/25 06:30:30;;;;;;;;;;;23.00;81.30;;;;;;5096039;28;19918;-58
2022/08/25 06:32:55;;;;;;;;;;;23.00;81.30;;;;;;5114136;28;19914;-57
2022/08/25 06:35:21;;;;;;;;;;;23.00;81.40;;;;;;5114414;28;20335;-57
2022/08/25 06:37:47;;;;;;;;;;;23.00;81.40;;;;;;5113894;28;19908;-58
2022/08/25 06:40:13;;;;;;;;;;;23.00;81.40;;;;;;5113724;28;19915;-56
2022/08/25 06:42:39;;;;;;;;;;;23.00;81.40;;;;;;5095716;28;19912;-56
2022/08/25 06:45:05;;;;;;;;;;;23.00;81.40;;;;;;5113746;28;19964;-58
2022/08/25 06:47:31;;;;;;;;;;;23.00;81.40;;;;;;5113676;28;19908;-58
2022/08/25 06:49:57;;;;;;;;;;;23.00;81.40;;;;;;5113874;28;19915;-57
2022/08/25 06:52:22;;;;;;;;;;;23.00;81.40;;;;;;5095656;28;19908;-58
2022/08/25 06:54:48;;;;;;;;;;;23.00;81.40;;;;;;5114015;28;19914;-55
2022/08/25 06:57:14;;;;;;;;;;;23.00;81.40;;;;;;5114143;28;19914;-54
2022/08/25 06:59:39;;;;;;;;;;;23.00;81.60;;;;;;5113751;28;20393;-53
2022/08/25 07:02:05;;;;;;;;;;;23.00;81.60;;;;;;5113304;28;19912;-54
2022/08/25 07:04:31;;;;;;;;;;;23.00;81.50;;;;;;5113864;28;19918;-56
2022/08/25 07:06:57;;;;;;;;;;;23.00;81.50;;;;;;5095374;28;19915;-54
2022/08/25 07:09:23;;;;;;;;;;;23.00;81.50;;;;;;5113588;28;20273;-57
2022/08/25 07:11:48;;;;;;;;;;;23.00;81.50;;;;;;5113817;28;19912;-54
2022/08/25 07:14:15;;;;;;;;;;;23.00;81.50;;;;;;5113835;28;19994;-55
2022/08/25 07:16:42;;;;;;;;;;;23.00;81.40;;;;;;5095097;28;20312;-56
2022/08/25 07:19:07;;;;;;;;;;;23.00;81.40;;;;;;5113527;28;19954;-53
2022/08/25 07:21:34;;;;;;;;;;;23.00;81.40;;;;;;5115242;28;19908;-52
2022/08/25 07:24:00;;;;;;;;;;;23.10;81.40;;;;;;5117701;28;20352;-55
2022/08/25 07:26:27;;;;;;;;;;;23.00;81.40;;;;;;5117333;28;19951;-57
2022/08/25 07:28:53;;;;;;;;;;;23.00;81.40;;;;;;5099075;28;19954;-56
2022/08/25 07:31:18;;;;;;;;;;;23.00;81.50;;;;;;5117218;28;19908;-56
2022/08/25 07:36:30;;;;;;;;;;;23.10;81.60;;;;;;5117229;28;20304;-56
2022/08/25 07:38:56;;;;;;;;;;;23.00;81.60;;;;;;5116905;28;19908;-54
2022/08/25 07:41:22;;;;;;;;;;;23.00;81.70;;;;;;5117296;28;20325;-56
2022/08/25 07:43:47;;;;;;;;;;;23.10;81.80;;;;;;5117029;28;19912;-56
2022/08/25 07:46:13;;;;;;;;;;;23.10;81.70;;;;;;5116958;28;19912;-55
2022/08/25 07:48:39;;;;;;;;;;;23.10;81.60;;;;;;5117022;28;19908;-55
2022/08/25 07:51:08;;;;;;;;;;;23.10;81.60;;;;;;5117080;28;20002;-55
2022/08/25 07:53:33;;;;;;;;;;;23.10;81.50;;;;;;5117004;28;19908;-56
2022/08/25 07:55:59;;;;;;;;;;;23.10;81.70;;;;;;5116428;28;19934;-54
2022/08/25 07:58:24;;;;;;;;;;;23.10;81.70;;;;;;5116701;28;19908;-53
2022/08/25 08:00:52;;;;;;;;;;;23.10;81.80;;;;;;5116810;28;20363;-55
2022/08/25 08:03:17;;;;;;;;;;;23.10;81.80;;;;;;5116373;28;20362;-54
2022/08/25 08:05:43;;;;;;;;;;;23.10;81.80;;;;;;5116787;28;19919;-56
2022/08/25 08:08:08;;;;;;;;;;;23.10;81.80;;;;;;5117148;28;20331;-55
2022/08/25 08:10:37;;;;;;;;;;;23.10;81.90;;;;;;5117092;28;20270;-53
2022/08/25 08:13:03;;;;;;;;;;;23.10;81.80;;;;;;5116324;28;19914;-55
2022/08/25 08:15:28;;;;;;;;;;;23.10;81.90;;;;;;5116479;28;20011;-53
2022/08/25 08:17:54;;;;;;;;;;;23.10;81.70;;;;;;5116802;28;19907;-57
2022/08/25 08:20:20;;;;;;;;;;;23.10;81.70;;;;;;5116788;28;19913;-54
2022/08/25 08:22:46;;;;;;;;;;;23.10;81.60;;;;;;5116629;28;20002;-57
2022/08/25 08:25:11;;;;;;;;;;;23.10;81.70;;;;;;5116288;28;19912;-55
2022/08/25 08:27:38;;;;;;;;;;;23.10;81.70;;;;;;5097905;28;19915;-55
2022/08/25 08:30:04;;;;;;;;;;;23.10;81.80;;;;;;5115940;28;20285;-56
2022/08/25 08:32:30;;;;;;;;;;;23.10;81.90;;;;;;5115329;28;19912;-57
2022/08/25 08:34:56;;;;;;;;;;;23.10;81.90;;;;;;5115656;28;19930;-56
2022/08/25 08:37:22;;;;;;;;;;;23.10;81.90;;;;;;5097556;28;20365;-57
2022/08/25 08:39:47;;;;;;;;;;;23.10;81.80;;;;;;5115694;28;19907;-56
2022/08/25 08:42:15;;;;;;;;;;;23.10;81.90;;;;;;5116074;28;19919;-57
2022/08/25 08:44:44;;;;;;;;;;;23.10;82.00;;;;;;5115674;28;19935;-52
2022/08/25 08:47:28;;;;;;;;;;;23.10;81.90;;;;;;5097805;28;20373;-53
2022/08/25 08:50:02;;;;;;;;;;;23.10;82.00;;;;;;5115555;28;20002;-55
2022/08/25 08:52:48;;;;;;;;;;;23.10;81.90;;;;;;5115701;28;20010;-55
2022/08/25 08:55:43;;;;;;;;;;;23.10;81.90;;;;;;5115153;28;19907;-52
2022/08/25 08:58:19;;;;;;;;;;;23.10;81.80;;;;;;5093329;28;19915;-52
2022/08/25 09:00:46;;;;;;;;;;;23.10;81.70;;;;;;5115634;28;19915;-53
2022/08/25 09:03:19;;;;;;;;;;;23.10;81.70;;;;;;5115538;28;19960;-57
2022/08/25 09:05:50;;;;;;;;;;;23.10;81.70;;;;;;5115390;28;19918;-57
2022/08/25 09:08:16;;;;;;;;;;;23.10;81.80;;;;;;5115540;28;19908;-54
2022/08/25 09:11:01;;;;;;;;;;;23.10;81.80;;;;;;5097157;28;20278;-55
2022/08/25 09:13:35;;;;;;;;;;;23.10;81.80;;;;;;5114924;28;19908;-54
2022/08/25 09:18:58;;;;;;;;;;;23.10;81.70;;;;;;5115426;28;19954;-55
2022/08/25 09:21:42;;;;;;;;;;;23.10;81.80;;;;;;5097045;28;20010;-56
2022/08/25 09:24:30;;;;;;;;;;;23.10;81.70;;;;;;5115367;28;19957;-57
2022/08/25 09:27:18;;;;;;;;;;;23.10;81.70;;;;;;5067301;28;19908;-56
2022/08/25 09:29:51;;;;;;;;;;;23.10;81.70;;;;;;5114855;28;19968;-53
2022/08/25 09:32:16;;;;;;;;;;;23.10;81.70;;;;;;5114822;28;19907;-57
2022/08/25 09:34:43;;;;;;;;;;;23.10;81.70;;;;;;5115066;28;19914;-57
2022/08/25 09:37:08;;;;;;;;;;;23.20;81.60;;;;;;5114942;28;20258;-57
2022/08/25 09:39:35;;;;;;;;;;;23.20;81.70;;;;;;5114998;28;19908;-55
2022/08/25 09:42:00;;;;;;;;;;;23.20;81.70;;;;;;5114594;28;19972;-55
2022/08/25 09:44:37;;;;;;;;;;;23.10;81.60;;;;;;5114272;28;20425;-55
2022/08/25 09:47:04;;;;;;;;;;;23.20;81.70;;;;;;5114404;28;19912;-55
2022/08/25 09:49:34;;;;;;;;;;;23.20;81.70;;;;;;5114705;28;19994;-51
2022/08/25 09:52:35;;;;;;;;;;;23.20;81.70;;;;;;5114671;28;20306;-55
2022/08/25 09:55:20;;;;;;;;;;;23.20;81.70;;;;;;5012077;28;19913;-55
2022/08/25 09:57:47;;;;;;;;;;;23.20;81.60;;;;;;5107100;28;19953;-52
2022/08/25 10:00:33;;;;;;;;;;;23.20;81.60;;;;;;5114558;28;19914;-55
2022/08/25 10:03:01;;;;;;;;;;;23.10;81.50;;;;;;5113889;28;20340;-56
2022/08/25 10:05:26;;;;;;;;;;;23.20;81.60;;;;;;5096254;28;19919;-52
2022/08/25 10:07:54;;;;;;;;;;;23.10;81.50;;;;;;5114461;28;19908;-52
2022/08/25 10:10:42;;;;;;;;;;;23.20;81.60;;;;;;5114380;28;20363;-56
2022/08/25 10:13:16;;;;;;;;;;;23.20;81.60;;;;;;5114552;28;19952;-55
2022/08/25 10:15:42;;;;;;;;;;;23.20;81.60;;;;;;5114278;28;20322;-53
2022/08/25 10:18:27;;;;;;;;;;;23.20;81.60;;;;;;5114234;28;19907;-56
2022/08/25 10:21:04;;;;;;;;;;;23.20;81.50;;;;;;5095898;28;19982;-56
2022/08/25 10:23:30;;;;;;;;;;;23.20;81.50;;;;;;5113979;28;20265;-55
2022/08/25 10:25:58;;;;;;;;;;;23.20;81.50;;;;;;5113784;28;20409;-57
2022/08/25 10:28:44;;;;;;;;;;;23.20;81.50;;;;;;5114331;28;20337;-56
2022/08/25 10:31:28;;;;;;;;;;;23.20;81.50;;;;;;5113887;28;19919;-55
2022/08/25 10:33:59;;;;;;;;;;;23.20;81.50;;;;;;5114320;28;19946;-55
2022/08/25 10:36:36;;;;;;;;;;;23.20;81.60;;;;;;5114313;28;19908;-55
2022/08/25 10:39:02;;;;;;;;;;;23.20;81.60;;;;;;5095923;28;20378;-57
2022/08/25 10:41:39;;;;;;;;;;;23.20;81.60;;;;;;5113762;28;19908;-52
2022/08/25 10:45:41;;;;;;;;;;;23.20;81.60;;;;;;5113834;28;20244;-56
2022/08/25 10:47:00;;;;;;;;;;;23.20;81.60;;;;;;5113924;28;20413;-54
2022/08/25 10:49:44;;;;;;;;;;;23.20;81.60;;;;;;5114109;28;20318;-54
2022/08/25 10:52:33;;;;;;;;;;;23.20;81.60;;;;;;5113845;28;19947;-53
2022/08/25 10:55:05;;;;;;;;;;;23.20;81.60;;;;;;5113912;28;19944;-55
2022/08/25 10:57:35;;;;;;;;;;;23.20;81.60;;;;;;5098818;28;19912;-57
2022/08/25 11:00:13;;;;;;;;;;;23.20;81.60;;;;;;5118025;28;19912;-55
2022/08/25 11:02:44;;;;;;;;;;;23.20;81.60;;;;;;5118101;28;20312;-55
2022/08/25 11:05:16;;;;;;;;;;;23.20;81.60;;;;;;5117677;28;19924;-55
2022/08/25 11:07:44;;;;;;;;;;;23.20;81.60;;;;;;5117544;28;20276;-57
2022/08/25 11:10:15;;;;;;;;;;;23.20;81.60;;;;;;5099579;28;19912;-54
2022/08/25 11:12:43;;;;;;;;;;;23.20;81.60;;;;;;5118204;28;19908;-54
2022/08/25 11:15:11;;;;;;;;;;;23.20;81.60;;;;;;5117676;28;19960;-56
2022/08/25 11:17:37;;;;;;;;;;;23.20;81.60;;;;;;5117688;28;20342;-55
2022/08/25 11:20:06;;;;;;;;;;;23.20;81.60;;;;;;5117359;28;19914;-54
2022/08/25 11:22:38;;;;;;;;;;;23.20;81.60;;;;;;5117238;28;19947;-54
2022/08/25 11:25:10;;;;;;;;;;;23.20;81.60;;;;;;5117552;28;19911;-56
2022/08/25 11:27:50;;;;;;;;;;;23.20;81.70;;;;;;5117981;28;19912;-54
2022/08/25 11:30:16;;;;;;;;;;;23.20;81.60;;;;;;5117629;28;20000;-57
2022/08/25 11:32:50;;;;;;;;;;;23.20;81.60;;;;;;5117040;28;20307;-55
2022/08/25 11:35:17;;;;;;;;;;;23.20;81.60;;;;;;5116689;28;19908;-57
2022/08/25 11:38:03;;;;;;;;;;;23.20;81.70;;;;;;5117191;28;19931;-54
2022/08/25 11:40:28;;;;;;;;;;;23.20;81.70;;;;;;5116897;28;19969;-56
2022/08/25 11:42:57;;;;;;;;;;;23.20;81.70;;;;;;5117320;28;19963;-56
2022/08/25 11:45:25;;;;;;;;;;;23.20;81.70;;;;;;5117158;28;19912;-52
2022/08/25 11:47:58;;;;;;;;;;;23.20;81.70;;;;;;5117477;28;19918;-56
2022/08/25 11:50:26;;;;;;;;;;;23.20;81.60;;;;;;5117283;28;19908;-54
2022/08/25 11:52:55;;;;;;;;;;;23.20;81.60;;;;;;5117171;28;19907;-56
2022/08/25 11:55:36;;;;;;;;;;;23.20;81.70;;;;;;5116759;28;19954;-56
2022/08/25 11:58:13;;;;;;;;;;;23.20;81.60;;;;;;5117045;28;19943;-55
2022/08/25 12:00:41;;;;;;;;;;;23.20;81.70;;;;;;5117102;28;19908;-53
2022/08/25 12:03:35;;;;;;;;;;;23.20;81.70;;;;;;5116578;28;19915;-57
2022/08/25 12:06:20;;;;;;;;;;;23.20;81.70;;;;;;5098529;28;19916;-54
2022/08/25 12:08:51;;;;;;;;;;;23.20;81.70;;;;;;5115674;28;19999;-53
2022/08/25 12:11:41;;;;;;;;;;;23.20;81.80;;;;;;5116862;28;19908;-55
2022/08/25 12:14:15;;;;;;;;;;;23.20;81.70;;;;;;5116533;28;19998;-52
2022/08/25 12:16:40;;;;;;;;;;;23.20;81.80;;;;;;5116759;28;20017;-57
2022/08/25 12:19:21;;;;;;;;;;;23.20;81.80;;;;;;5098220;28;19949;-53
2022/08/25 12:21:47;;;;;;;;;;;23.20;81.70;;;;;;5116628;28;19911;-54
2022/08/25 12:24:14;;;;;;;;;;;23.20;81.70;;;;;;5116466;28;20052;-56
2022/08/25 12:26:39;;;;;;;;;;;23.20;81.80;;;;;;5116551;28;19908;-57
2022/08/25 12:29:23;;;;;;;;;;;23.20;81.80;;;;;;5116064;28;19908;-55
2022/08/25 12:32:07;;;;;;;;;;;23.20;81.80;;;;;;5116019;28;19919;-56
2022/08/25 12:34:33;;;;;;;;;;;23.20;81.90;;;;;;5116049;28;19908;-55
2022/08/25 12:37:12;;;;;;;;;;;23.20;81.80;;;;;;5116219;28;19915;-57
2022/08/25 12:39:49;;;;;;;;;;;23.30;81.90;;;;;;5116068;28;19956;-56
2022/08/25 12:42:23;;;;;;;;;;;23.30;81.90;;;;;;5116080;28;19918;-53
2022/08/25 12:45:08;;;;;;;;;;;23.20;81.80;;;;;;5116264;28;19912;-54
2022/08/25 12:47:34;;;;;;;;;;;23.20;81.80;;;;;;5115568;28;19907;-54
2022/08/25 12:50:18;;;;;;;;;;;23.20;81.80;;;;;;5115917;28;19931;-55
2022/08/25 12:52:44;;;;;;;;;;;23.20;81.80;;;;;;5115489;28;19953;-53
2022/08/25 12:55:10;;;;;;;;;;;23.30;81.90;;;;;;5115762;28;20020;-55
2022/08/25 12:57:39;;;;;;;;;;;23.20;81.90;;;;;;5115844;28;19908;-56
2022/08/25 13:00:15;;;;;;;;;;;23.20;81.90;;;;;;5116015;28;20358;-53
2022/08/25 13:02:41;;;;;;;;;;;23.20;82.00;;;;;;5115374;28;20010;-53
2022/08/25 13:05:06;;;;;;;;;;;23.20;82.00;;;;;;5097044;28;20267;-56
2022/08/25 13:07:40;;;;;;;;;;;23.20;81.90;;;;;;5115344;28;20199;-55
2022/08/25 13:10:06;;;;;;;;;;;23.30;82.00;;;;;;5115136;28;19950;-54
2022/08/25 13:12:45;;;;;;;;;;;23.20;81.80;;;;;;5115459;28;19938;-56
2022/08/25 13:15:12;;;;;;;;;;;23.20;81.90;;;;;;5096768;28;20346;-54
2022/08/25 13:17:38;;;;;;;;;;;23.20;81.80;;;;;;5115019;28;20363;-55
2022/08/25 13:20:18;;;;;;;;;;;23.20;81.90;;;;;;5115184;28;19907;-55
2022/08/25 13:22:46;;;;;;;;;;;23.20;81.90;;;;;;5114945;28;20020;-53
2022/08/25 13:25:19;;;;;;;;;;;23.20;82.00;;;;;;5115038;28;20243;-55
2022/08/25 13:27:50;;;;;;;;;;;23.30;82.00;;;;;;5115154;28;19908;-56
2022/08/25 13:30:34;;;;;;;;;;;23.30;82.00;;;;;;5115084;28;19908;-55
2022/08/25 13:33:14;;;;;;;;;;;23.30;82.00;;;;;;5115081;28;19933;-50
2022/08/25 13:35:46;;;;;;;;;;;23.30;82.00;;;;;;5114757;28;19980;-55
2022/08/25 13:38:12;;;;;;;;;;;23.20;81.80;;;;;;5114737;28;20362;-54
2022/08/25 13:40:38;;;;;;;;;;;23.20;81.90;;;;;;5114444;28;19908;-52
2022/08/25 13:43:08;;;;;;;;;;;23.20;81.90;;;;;;5114341;28;19916;-52
2022/08/25 13:45:36;;;;;;;;;;;23.30;82.00;;;;;;5114449;28;19911;-55
2022/08/25 13:48:02;;;;;;;;;;;23.30;82.00;;;;;;5114285;28;19908;-56
2022/08/25 13:50:28;;;;;;;;;;;23.30;82.00;;;;;;5114433;28;19914;-55
2022/08/25 13:53:01;;;;;;;;;;;23.30;82.00;;;;;;5114465;28;20006;-57
2022/08/25 13:55:38;;;;;;;;;;;23.30;82.00;;;;;;5114764;28;19908;-52
2022/08/25 13:58:04;;;;;;;;;;;23.30;82.00;;;;;;5114282;28;20381;-53
2022/08/25 14:00:36;;;;;;;;;;;23.30;82.00;;;;;;5114659;28;19972;-54
2022/08/25 14:03:03;;;;;;;;;;;23.20;81.90;;;;;;5114437;28;19970;-55
2022/08/25 14:05:36;;;;;;;;;;;23.20;81.90;;;;;;5114230;28;19912;-57
2022/08/25 14:08:02;;;;;;;;;;;23.30;82.50;;;;;;5114284;28;20399;-51
2022/08/25 14:10:34;;;;;;;;;;;23.30;82.00;;;;;;5114192;28;19949;-55
2022/08/25 14:13:14;;;;;;;;;;;23.30;82.00;;;;;;5114497;28;20006;-55
2022/08/25 14:15:40;;;;;;;;;;;23.30;82.10;;;;;;5114307;28;20392;-52
2022/08/25 14:18:09;;;;;;;;;;;23.30;82.00;;;;;;5114431;28;20129;-55
2022/08/25 14:20:35;;;;;;;;;;;23.30;82.00;;;;;;5114245;28;19908;-53
2022/08/25 14:23:06;;;;;;;;;;;23.30;81.90;;;;;;5114000;28;19984;-51
2022/08/25 14:25:33;;;;;;;;;;;23.30;82.00;;;;;;5113944;28;19915;-56
2022/08/25 14:28:00;;;;;;;;;;;23.30;82.00;;;;;;5113863;28;19907;-53
2022/08/25 14:30:26;;;;;;;;;;;23.30;81.90;;;;;;5114463;28;19908;-55
2022/08/25 14:32:51;;;;;;;;;;;23.30;82.00;;;;;;5120521;28;20251;-56